Ecokeeper — SVTY — position and weather

sailwx.info

Track history (hours):
 
Tides and Currents Weather Stations Pressure Air Temp Water Temp Dewpoint Dewpoint Depression Visibility Wind Speed Wind Dir Waves Ship Positions

Ecokeeper

Last reported at 2016-Dec-03 18:34 UTC. Time now 2016-Dec-03 19:50 UTC.
Position N 37°57' E 023°34'.

Length 90 m; draft 6.2 m.

Type: Tanker. MMSI: 240689000.

Date/timePositionNaut miles runAvg speedWind from/ knotsBaromVisibWave heightAir tempDewpointWater temp
2016-Dec-03 18:34N 37°57' E 023°34'4 4.2
2016-Dec-03 17:34N 37°54' E 023°37'8 8.0
2016-Dec-03 16:34N 37°47' E 023°42'8 7.9
2016-Dec-03 15:33N 37°40' E 023°47'54 7.7
2016-Dec-03 08:34N 37°17' E 024°48'8 8.3
2016-Dec-03 07:34N 37°18' E 024°59'8 8.2
2016-Dec-03 06:34N 37°18' E 025°09'8 8.3
2016-Dec-03 05:34N 37°18' E 025°19'8 8.3
2016-Dec-03 04:34N 37°17' E 025°30'8 7.8
2016-Dec-03 03:29N 37°14' E 025°40'7 7.6
2016-Dec-03 02:34N 37°12' E 025°48'  
2016-Nov-27 05:10N 39°54' E 025°03'5 6.3
2016-Nov-27 04:22N 39°59' E 025°01'23 7.7
2016-Nov-27 01:24N 40°19' E 025°14'2 1.5
2016-Nov-27 00:07N 40°21' E 025°15'32 8.2
2016-Nov-26 20:15N 40°44' E 025°44'7 8.4
2016-Nov-26 19:24N 40°48' E 025°51'2 0.2
2016-Nov-26 10:31N 40°49' E 025°53'2 1.6
2016-Nov-26 09:33N 40°50' E 025°55'0 0.0
2016-Nov-26 08:33N 40°50' E 025°55'0 0.0
2016-Nov-26 07:33N 40°50' E 025°55'0 0.0
2016-Nov-26 06:31N 40°50' E 025°55'0 0.0
2016-Nov-26 05:33N 40°50' E 025°55'0 0.0
2016-Nov-26 04:33N 40°50' E 025°55'0 0.0
2016-Nov-26 03:26N 40°50' E 025°55'0 0.0
2016-Nov-26 02:32N 40°50' E 025°55'0 0.0
2016-Nov-26 01:29N 40°50' E 025°55'0 0.0
2016-Nov-26 00:33N 40°50' E 025°55'0 0.0
2016-Nov-25 23:33N 40°50' E 025°55'0 0.0
2016-Nov-25 22:33N 40°50' E 025°55'0 0.0
2016-Nov-25 21:33N 40°50' E 025°55'0 0.0
2016-Nov-25 20:33N 40°50' E 025°55'0 0.0
2016-Nov-25 19:33N 40°50' E 025°55'0 0.0
2016-Nov-25 18:29N 40°50' E 025°55'0 0.0
2016-Nov-25 17:25N 40°50' E 025°55'0 0.0
2016-Nov-25 16:16N 40°50' E 025°55'0 0.0
2016-Nov-25 11:24N 40°50' E 025°55'0 0.0
2016-Nov-25 10:32N 40°50' E 025°55'0 0.0
2016-Nov-25 09:33N 40°50' E 025°55'0 0.0
2016-Nov-25 08:33N 40°50' E 025°55'0 0.0
2016-Nov-25 07:31N 40°50' E 025°55'1 0.6
2016-Nov-25 05:19N 40°49' E 025°54'41 6.1
2016-Nov-24 22:32N 40°21' E 025°14'9 8.7
2016-Nov-24 21:33N 40°14' E 025°07'9 8.6
2016-Nov-24 20:29N 40°06' E 025°02'10 8.7
2016-Nov-24 19:18N 39°57' E 024°56'  
Track history (hours):
 
Tides and Currents Weather Stations Pressure Air Temp Water Temp Dewpoint Dewpoint Depression Visibility Wind Speed Wind Dir Waves Ship Positions

Ecokeeper

Last reported at 2016-Dec-03 18:34 UTC. Time now 2016-Dec-03 19:50 UTC.
Position N 37°57' E 023°34'.

Length 90 m; draft 6.2 m.

Type: Tanker. MMSI: 240689000.

Date/timePositionNaut miles runAvg speedWind from/ knotsBaromVisibWave heightAir tempDewpointWater temp
2016-Dec-03 18:34N 37°57' E 023°34'4 4.2
2016-Dec-03 17:34N 37°54' E 023°37'8 8.0
2016-Dec-03 16:34N 37°47' E 023°42'8 7.9
2016-Dec-03 15:33N 37°40' E 023°47'54 7.7
2016-Dec-03 08:34N 37°17' E 024°48'8 8.3
2016-Dec-03 07:34N 37°18' E 024°59'8 8.2
2016-Dec-03 06:34N 37°18' E 025°09'8 8.3
2016-Dec-03 05:34N 37°18' E 025°19'8 8.3
2016-Dec-03 04:34N 37°17' E 025°30'8 7.8
2016-Dec-03 03:29N 37°14' E 025°40'7 7.6
2016-Dec-03 02:34N 37°12' E 025°48'  
2016-Nov-27 05:10N 39°54' E 025°03'5 6.3
2016-Nov-27 04:22N 39°59' E 025°01'23 7.7
2016-Nov-27 01:24N 40°19' E 025°14'2 1.5
2016-Nov-27 00:07N 40°21' E 025°15'32 8.2
2016-Nov-26 20:15N 40°44' E 025°44'7 8.4
2016-Nov-26 19:24N 40°48' E 025°51'2 0.2
2016-Nov-26 10:31N 40°49' E 025°53'2 1.6
2016-Nov-26 09:33N 40°50' E 025°55'0 0.0
2016-Nov-26 08:33N 40°50' E 025°55'0 0.0
2016-Nov-26 07:33N 40°50' E 025°55'0 0.0
2016-Nov-26 06:31N 40°50' E 025°55'0 0.0
2016-Nov-26 05:33N 40°50' E 025°55'0 0.0
2016-Nov-26 04:33N 40°50' E 025°55'0 0.0
2016-Nov-26 03:26N 40°50' E 025°55'0 0.0
2016-Nov-26 02:32N 40°50' E 025°55'0 0.0
2016-Nov-26 01:29N 40°50' E 025°55'0 0.0
2016-Nov-26 00:33N 40°50' E 025°55'0 0.0
2016-Nov-25 23:33N 40°50' E 025°55'0 0.0
2016-Nov-25 22:33N 40°50' E 025°55'0 0.0
2016-Nov-25 21:33N 40°50' E 025°55'0 0.0
2016-Nov-25 20:33N 40°50' E 025°55'0 0.0
2016-Nov-25 19:33N 40°50' E 025°55'0 0.0
2016-Nov-25 18:29N 40°50' E 025°55'0 0.0
2016-Nov-25 17:25N 40°50' E 025°55'0 0.0
2016-Nov-25 16:16N 40°50' E 025°55'0 0.0
2016-Nov-25 11:24N 40°50' E 025°55'0 0.0
2016-Nov-25 10:32N 40°50' E 025°55'0 0.0
2016-Nov-25 09:33N 40°50' E 025°55'0 0.0
2016-Nov-25 08:33N 40°50' E 025°55'0 0.0
2016-Nov-25 07:31N 40°50' E 025°55'1 0.6
2016-Nov-25 05:19N 40°49' E 025°54'41 6.1
2016-Nov-24 22:32N 40°21' E 025°14'9 8.7
2016-Nov-24 21:33N 40°14' E 025°07'9 8.6
2016-Nov-24 20:29N 40°06' E 025°02'10 8.7
2016-Nov-24 19:18N 39°57' E 024°56'  

Dump ship's entire track history